sensor_id;sensor_type;location;lat;lon;timestamp;P1;durP1;ratioP1;P2;durP2;ratioP2
60700;SDS011;46541;49.894;10.886;2022-07-11T00:00:11;3.47;;;1.52;;
60700;SDS011;46541;49.894;10.886;2022-07-11T00:02:40;1.50;;;0.70;;
60700;SDS011;46541;49.894;10.886;2022-07-11T00:05:08;1.85;;;0.90;;
60700;SDS011;46541;49.894;10.886;2022-07-11T00:07:35;2.20;;;0.85;;
60700;SDS011;46541;49.894;10.886;2022-07-11T00:10:03;4.38;;;0.73;;
60700;SDS011;46541;49.894;10.886;2022-07-11T00:12:31;4.32;;;0.60;;
60700;SDS011;46541;49.894;10.886;2022-07-11T00:14:57;3.17;;;0.98;;
60700;SDS011;46541;49.894;10.886;2022-07-11T00:17:24;3.83;;;0.98;;
60700;SDS011;46541;49.894;10.886;2022-07-11T00:19:51;2.78;;;0.80;;
60700;SDS011;46541;49.894;10.886;2022-07-11T00:22:18;1.20;;;0.60;;
60700;SDS011;46541;49.894;10.886;2022-07-11T00:24:45;1.88;;;0.70;;
60700;SDS011;46541;49.894;10.886;2022-07-11T00:27:11;1.60;;;0.82;;
60700;SDS011;46541;49.894;10.886;2022-07-11T00:29:40;1.25;;;0.63;;
60700;SDS011;46541;49.894;10.886;2022-07-11T00:32:06;1.08;;;0.40;;
60700;SDS011;46541;49.894;10.886;2022-07-11T00:34:34;3.03;;;0.50;;
60700;SDS011;46541;49.894;10.886;2022-07-11T00:37:01;2.20;;;0.80;;
60700;SDS011;46541;49.894;10.886;2022-07-11T00:39:28;2.72;;;0.70;;
60700;SDS011;46541;49.894;10.886;2022-07-11T00:41:54;1.67;;;0.57;;
60700;SDS011;46541;49.894;10.886;2022-07-11T00:44:21;1.92;;;0.45;;
60700;SDS011;46541;49.894;10.886;2022-07-11T00:46:48;1.30;;;0.40;;
60700;SDS011;46541;49.894;10.886;2022-07-11T00:49:15;2.15;;;1.20;;
60700;SDS011;46541;49.894;10.886;2022-07-11T00:51:42;1.45;;;0.68;;
60700;SDS011;46541;49.894;10.886;2022-07-11T00:54:09;1.92;;;1.10;;
60700;SDS011;46541;49.894;10.886;2022-07-11T00:56:37;2.28;;;0.60;;
60700;SDS011;46541;49.894;10.886;2022-07-11T00:59:04;3.22;;;0.60;;
60700;SDS011;46541;49.894;10.886;2022-07-11T01:01:32;2.28;;;0.50;;
60700;SDS011;46541;49.894;10.886;2022-07-11T01:04:01;1.05;;;0.52;;
60700;SDS011;46541;49.894;10.886;2022-07-11T01:06:29;0.88;;;0.52;;
60700;SDS011;46541;49.894;10.886;2022-07-11T01:08:56;2.28;;;0.63;;
60700;SDS011;46541;49.894;10.886;2022-07-11T01:11:23;0.90;;;0.40;;
60700;SDS011;46541;49.894;10.886;2022-07-11T01:13:50;1.25;;;0.60;;
60700;SDS011;46541;49.894;10.886;2022-07-11T01:16:18;3.10;;;0.50;;
60700;SDS011;46541;49.894;10.886;2022-07-11T01:18:47;1.85;;;0.68;;
60700;SDS011;46541;49.894;10.886;2022-07-11T01:23:49;2.85;;;0.55;;
60700;SDS011;46541;49.894;10.886;2022-07-11T01:26:16;0.65;;;0.45;;
60700;SDS011;46541;49.894;10.886;2022-07-11T01:28:45;1.10;;;0.80;;
60700;SDS011;46541;49.894;10.886;2022-07-11T01:31:12;1.48;;;0.50;;
60700;SDS011;46541;49.894;10.886;2022-07-11T01:33:39;1.33;;;0.50;;
60700;SDS011;46541;49.894;10.886;2022-07-11T01:36:07;2.63;;;0.50;;
60700;SDS011;46541;49.894;10.886;2022-07-11T01:38:34;2.22;;;0.60;;
60700;SDS011;46541;49.894;10.886;2022-07-11T01:41:01;1.30;;;0.70;;
60700;SDS011;46541;49.894;10.886;2022-07-11T01:43:28;0.35;;;0.32;;
60700;SDS011;46541;49.894;10.886;2022-07-11T01:45:55;0.85;;;0.43;;
60700;SDS011;46541;49.894;10.886;2022-07-11T01:48:22;0.70;;;0.40;;
60700;SDS011;46541;49.894;10.886;2022-07-11T01:50:50;0.30;;;0.30;;
60700;SDS011;46541;49.894;10.886;2022-07-11T01:53:17;0.57;;;0.40;;
60700;SDS011;46541;49.894;10.886;2022-07-11T01:55:44;0.35;;;0.20;;
60700;SDS011;46541;49.894;10.886;2022-07-11T01:58:31;0.52;;;0.40;;
60700;SDS011;46541;49.894;10.886;2022-07-11T02:00:58;1.58;;;0.52;;
60700;SDS011;46541;49.894;10.886;2022-07-11T02:03:25;0.40;;;0.40;;
60700;SDS011;46541;49.894;10.886;2022-07-11T02:05:54;0.70;;;0.32;;
60700;SDS011;46541;49.894;10.886;2022-07-11T02:08:22;1.48;;;0.40;;
60700;SDS011;46541;49.894;10.886;2022-07-11T02:10:49;0.35;;;0.30;;
60700;SDS011;46541;49.894;10.886;2022-07-11T02:13:18;0.77;;;0.30;;
60700;SDS011;46541;49.894;10.886;2022-07-11T02:15:46;0.73;;;0.43;;
60700;SDS011;46541;49.894;10.886;2022-07-11T02:18:15;0.73;;;0.40;;
60700;SDS011;46541;49.894;10.886;2022-07-11T02:20:42;0.47;;;0.20;;
60700;SDS011;46541;49.894;10.886;2022-07-11T02:23:15;0.80;;;0.30;;
60700;SDS011;46541;49.894;10.886;2022-07-11T02:25:43;1.30;;;0.43;;
60700;SDS011;46541;49.894;10.886;2022-07-11T02:28:10;0.22;;;0.20;;
60700;SDS011;46541;49.894;10.886;2022-07-11T02:30:38;1.20;;;0.20;;
60700;SDS011;46541;49.894;10.886;2022-07-11T02:33:06;0.30;;;0.30;;
60700;SDS011;46541;49.894;10.886;2022-07-11T02:35:34;0.28;;;0.28;;
60700;SDS011;46541;49.894;10.886;2022-07-11T02:38:03;0.52;;;0.32;;
60700;SDS011;46541;49.894;10.886;2022-07-11T02:40:30;1.02;;;0.47;;
60700;SDS011;46541;49.894;10.886;2022-07-11T02:42:57;0.57;;;0.40;;
60700;SDS011;46541;49.894;10.886;2022-07-11T02:45:23;1.50;;;0.50;;
60700;SDS011;46541;49.894;10.886;2022-07-11T02:47:50;0.68;;;0.40;;
60700;SDS011;46541;49.894;10.886;2022-07-11T02:50:17;0.50;;;0.40;;
60700;SDS011;46541;49.894;10.886;2022-07-11T02:52:44;2.17;;;0.50;;
60700;SDS011;46541;49.894;10.886;2022-07-11T02:55:11;0.90;;;0.47;;
60700;SDS011;46541;49.894;10.886;2022-07-11T02:57:39;0.35;;;0.35;;
60700;SDS011;46541;49.894;10.886;2022-07-11T03:00:11;0.40;;;0.40;;
60700;SDS011;46541;49.894;10.886;2022-07-11T03:02:40;3.13;;;0.40;;
60700;SDS011;46541;49.894;10.886;2022-07-11T03:05:07;0.50;;;0.30;;
60700;SDS011;46541;49.894;10.886;2022-07-11T03:07:35;1.05;;;0.52;;
60700;SDS011;46541;49.894;10.886;2022-07-11T03:10:02;0.43;;;0.28;;
60700;SDS011;46541;49.894;10.886;2022-07-11T03:12:29;0.57;;;0.30;;
60700;SDS011;46541;49.894;10.886;2022-07-11T03:14:56;0.50;;;0.50;;
60700;SDS011;46541;49.894;10.886;2022-07-11T03:17:23;0.38;;;0.20;;
60700;SDS011;46541;49.894;10.886;2022-07-11T03:19:50;2.25;;;0.30;;
60700;SDS011;46541;49.894;10.886;2022-07-11T03:22:16;0.22;;;0.13;;
60700;SDS011;46541;49.894;10.886;2022-07-11T03:24:43;0.45;;;0.28;;
60700;SDS011;46541;49.894;10.886;2022-07-11T03:27:11;0.40;;;0.40;;
60700;SDS011;46541;49.894;10.886;2022-07-11T03:29:39;0.30;;;0.20;;
60700;SDS011;46541;49.894;10.886;2022-07-11T03:32:07;0.20;;;0.20;;
60700;SDS011;46541;49.894;10.886;2022-07-11T03:34:35;0.40;;;0.25;;
60700;SDS011;46541;49.894;10.886;2022-07-11T03:37:02;0.28;;;0.20;;
60700;SDS011;46541;49.894;10.886;2022-07-11T03:39:29;0.20;;;0.20;;
60700;SDS011;46541;49.894;10.886;2022-07-11T03:41:56;1.17;;;0.40;;
60700;SDS011;46541;49.894;10.886;2022-07-11T03:44:23;0.50;;;0.35;;
60700;SDS011;46541;49.894;10.886;2022-07-11T03:46:50;0.47;;;0.30;;
60700;SDS011;46541;49.894;10.886;2022-07-11T03:49:17;0.20;;;0.20;;
60700;SDS011;46541;49.894;10.886;2022-07-11T03:51:44;0.20;;;0.20;;
60700;SDS011;46541;49.894;10.886;2022-07-11T03:54:11;0.43;;;0.32;;
60700;SDS011;46541;49.894;10.886;2022-07-11T03:56:38;0.70;;;0.40;;
60700;SDS011;46541;49.894;10.886;2022-07-11T03:59:05;0.30;;;0.20;;
60700;SDS011;46541;49.894;10.886;2022-07-11T04:01:32;1.05;;;0.32;;
60700;SDS011;46541;49.894;10.886;2022-07-11T04:03:59;0.55;;;0.28;;
60700;SDS011;46541;49.894;10.886;2022-07-11T04:06:25;0.60;;;0.30;;
60700;SDS011;46541;49.894;10.886;2022-07-11T04:08:53;0.13;;;0.13;;
60700;SDS011;46541;49.894;10.886;2022-07-11T04:11:20;0.47;;;0.35;;
60700;SDS011;46541;49.894;10.886;2022-07-11T04:13:47;1.05;;;0.20;;
60700;SDS011;46541;49.894;10.886;2022-07-11T04:16:14;1.02;;;0.30;;
60700;SDS011;46541;49.894;10.886;2022-07-11T04:18:41;0.45;;;0.45;;
60700;SDS011;46541;49.894;10.886;2022-07-11T04:21:08;0.60;;;0.40;;
60700;SDS011;46541;49.894;10.886;2022-07-11T04:23:35;0.30;;;0.30;;
60700;SDS011;46541;49.894;10.886;2022-07-11T04:26:02;0.70;;;0.40;;
60700;SDS011;46541;49.894;10.886;2022-07-11T04:28:29;0.77;;;0.30;;
60700;SDS011;46541;49.894;10.886;2022-07-11T04:30:57;1.02;;;0.25;;
60700;SDS011;46541;49.894;10.886;2022-07-11T04:33:24;0.20;;;0.20;;
60700;SDS011;46541;49.894;10.886;2022-07-11T04:35:51;2.55;;;0.22;;
60700;SDS011;46541;49.894;10.886;2022-07-11T04:38:17;1.38;;;0.30;;
60700;SDS011;46541;49.894;10.886;2022-07-11T04:40:48;0.77;;;0.50;;
60700;SDS011;46541;49.894;10.886;2022-07-11T04:43:15;1.50;;;0.50;;
60700;SDS011;46541;49.894;10.886;2022-07-11T04:45:42;1.17;;;0.60;;
60700;SDS011;46541;49.894;10.886;2022-07-11T04:48:10;1.58;;;0.30;;
60700;SDS011;46541;49.894;10.886;2022-07-11T04:50:37;0.50;;;0.45;;
60700;SDS011;46541;49.894;10.886;2022-07-11T04:53:04;0.30;;;0.30;;
60700;SDS011;46541;49.894;10.886;2022-07-11T04:55:31;0.47;;;0.30;;
60700;SDS011;46541;49.894;10.886;2022-07-11T04:57:58;0.47;;;0.40;;
60700;SDS011;46541;49.894;10.886;2022-07-11T05:00:25;1.08;;;0.32;;
60700;SDS011;46541;49.894;10.886;2022-07-11T05:02:52;0.40;;;0.40;;
60700;SDS011;46541;49.894;10.886;2022-07-11T05:05:19;0.50;;;0.50;;
60700;SDS011;46541;49.894;10.886;2022-07-11T05:07:47;0.63;;;0.40;;
60700;SDS011;46541;49.894;10.886;2022-07-11T05:10:14;0.90;;;0.70;;
60700;SDS011;46541;49.894;10.886;2022-07-11T05:12:41;0.40;;;0.40;;
60700;SDS011;46541;49.894;10.886;2022-07-11T05:15:08;1.05;;;0.35;;
60700;SDS011;46541;49.894;10.886;2022-07-11T05:17:35;0.80;;;0.70;;
60700;SDS011;46541;49.894;10.886;2022-07-11T05:20:02;0.98;;;0.73;;
60700;SDS011;46541;49.894;10.886;2022-07-11T05:22:30;1.08;;;0.80;;
60700;SDS011;46541;49.894;10.886;2022-07-11T05:25:00;2.35;;;1.35;;
60700;SDS011;46541;49.894;10.886;2022-07-11T05:27:27;6.07;;;3.03;;
60700;SDS011;46541;49.894;10.886;2022-07-11T05:29:53;3.40;;;1.10;;
60700;SDS011;46541;49.894;10.886;2022-07-11T05:32:20;2.03;;;1.50;;
60700;SDS011;46541;49.894;10.886;2022-07-11T05:34:47;2.63;;;0.88;;
60700;SDS011;46541;49.894;10.886;2022-07-11T05:37:14;3.95;;;2.20;;
60700;SDS011;46541;49.894;10.886;2022-07-11T05:39:42;3.08;;;2.15;;
60700;SDS011;46541;49.894;10.886;2022-07-11T05:42:09;1.05;;;0.95;;
60700;SDS011;46541;49.894;10.886;2022-07-11T05:44:36;1.15;;;0.98;;
60700;SDS011;46541;49.894;10.886;2022-07-11T05:47:03;2.35;;;1.00;;
60700;SDS011;46541;49.894;10.886;2022-07-11T05:49:30;1.10;;;1.00;;
60700;SDS011;46541;49.894;10.886;2022-07-11T05:51:58;1.33;;;1.00;;
60700;SDS011;46541;49.894;10.886;2022-07-11T05:54:25;3.55;;;1.20;;
60700;SDS011;46541;49.894;10.886;2022-07-11T05:56:52;1.08;;;0.93;;
60700;SDS011;46541;49.894;10.886;2022-07-11T05:59:19;1.58;;;1.17;;
60700;SDS011;46541;49.894;10.886;2022-07-11T06:01:46;1.38;;;0.98;;
60700;SDS011;46541;49.894;10.886;2022-07-11T06:04:14;2.38;;;1.27;;
60700;SDS011;46541;49.894;10.886;2022-07-11T06:06:41;0.95;;;0.80;;
60700;SDS011;46541;49.894;10.886;2022-07-11T06:09:08;0.90;;;0.90;;
60700;SDS011;46541;49.894;10.886;2022-07-11T06:11:35;1.38;;;1.02;;
60700;SDS011;46541;49.894;10.886;2022-07-11T06:14:02;1.73;;;0.85;;
60700;SDS011;46541;49.894;10.886;2022-07-11T06:16:29;0.95;;;0.70;;
60700;SDS011;46541;49.894;10.886;2022-07-11T06:18:56;0.88;;;0.82;;
60700;SDS011;46541;49.894;10.886;2022-07-11T06:21:23;1.05;;;1.00;;
60700;SDS011;46541;49.894;10.886;2022-07-11T06:23:51;1.27;;;0.80;;
60700;SDS011;46541;49.894;10.886;2022-07-11T06:26:18;0.95;;;0.95;;
60700;SDS011;46541;49.894;10.886;2022-07-11T06:28:45;1.20;;;1.10;;
60700;SDS011;46541;49.894;10.886;2022-07-11T06:31:12;1.10;;;0.88;;
60700;SDS011;46541;49.894;10.886;2022-07-11T06:33:39;1.95;;;1.20;;
60700;SDS011;46541;49.894;10.886;2022-07-11T06:36:07;3.83;;;1.42;;
60700;SDS011;46541;49.894;10.886;2022-07-11T06:38:34;2.70;;;1.60;;
60700;SDS011;46541;49.894;10.886;2022-07-11T06:41:01;3.33;;;1.40;;
60700;SDS011;46541;49.894;10.886;2022-07-11T06:43:29;1.95;;;1.73;;
60700;SDS011;46541;49.894;10.886;2022-07-11T06:45:59;2.20;;;1.40;;
60700;SDS011;46541;49.894;10.886;2022-07-11T06:48:27;1.33;;;1.23;;
60700;SDS011;46541;49.894;10.886;2022-07-11T06:50:55;3.78;;;1.30;;
60700;SDS011;46541;49.894;10.886;2022-07-11T06:53:28;4.78;;;1.35;;
60700;SDS011;46541;49.894;10.886;2022-07-11T06:55:56;1.73;;;1.15;;
60700;SDS011;46541;49.894;10.886;2022-07-11T06:58:23;1.70;;;1.30;;
60700;SDS011;46541;49.894;10.886;2022-07-11T07:01:00;2.17;;;1.30;;
60700;SDS011;46541;49.894;10.886;2022-07-11T07:03:29;3.15;;;1.08;;
60700;SDS011;46541;49.894;10.886;2022-07-11T07:05:56;1.27;;;1.17;;
60700;SDS011;46541;49.894;10.886;2022-07-11T07:08:27;2.38;;;1.25;;
60700;SDS011;46541;49.894;10.886;2022-07-11T07:10:55;2.17;;;1.77;;
60700;SDS011;46541;49.894;10.886;2022-07-11T07:13:23;0.82;;;0.82;;
60700;SDS011;46541;49.894;10.886;2022-07-11T07:15:51;1.25;;;0.90;;
60700;SDS011;46541;49.894;10.886;2022-07-11T07:18:19;1.35;;;0.90;;
60700;SDS011;46541;49.894;10.886;2022-07-11T07:20:46;1.65;;;1.30;;
60700;SDS011;46541;49.894;10.886;2022-07-11T07:23:16;1.88;;;1.25;;
60700;SDS011;46541;49.894;10.886;2022-07-11T07:25:44;2.45;;;1.55;;
60700;SDS011;46541;49.894;10.886;2022-07-11T07:28:11;2.03;;;1.83;;
60700;SDS011;46541;49.894;10.886;2022-07-11T07:30:38;5.78;;;3.25;;
60700;SDS011;46541;49.894;10.886;2022-07-11T07:33:10;6.60;;;3.60;;
60700;SDS011;46541;49.894;10.886;2022-07-11T07:35:38;2.92;;;1.65;;
60700;SDS011;46541;49.894;10.886;2022-07-11T07:38:06;1.20;;;0.90;;
60700;SDS011;46541;49.894;10.886;2022-07-11T07:40:32;1.88;;;0.60;;
60700;SDS011;46541;49.894;10.886;2022-07-11T07:42:59;1.38;;;0.80;;
60700;SDS011;46541;49.894;10.886;2022-07-11T07:45:27;3.25;;;0.63;;
60700;SDS011;46541;49.894;10.886;2022-07-11T07:47:54;1.98;;;0.63;;
60700;SDS011;46541;49.894;10.886;2022-07-11T07:50:21;0.93;;;0.50;;
60700;SDS011;46541;49.894;10.886;2022-07-11T07:52:51;0.30;;;0.30;;
60700;SDS011;46541;49.894;10.886;2022-07-11T07:55:18;0.65;;;0.50;;
60700;SDS011;46541;49.894;10.886;2022-07-11T07:57:45;1.95;;;1.40;;
60700;SDS011;46541;49.894;10.886;2022-07-11T08:00:12;3.33;;;0.65;;
60700;SDS011;46541;49.894;10.886;2022-07-11T08:03:06;1.80;;;0.60;;
60700;SDS011;46541;49.894;10.886;2022-07-11T08:05:35;0.90;;;0.73;;
60700;SDS011;46541;49.894;10.886;2022-07-11T08:08:02;2.03;;;0.40;;
60700;SDS011;46541;49.894;10.886;2022-07-11T08:10:30;1.85;;;0.20;;
60700;SDS011;46541;49.894;10.886;2022-07-11T08:12:57;0.95;;;0.80;;
60700;SDS011;46541;49.894;10.886;2022-07-11T08:15:23;3.92;;;0.85;;
60700;SDS011;46541;49.894;10.886;2022-07-11T08:17:50;1.67;;;0.70;;
60700;SDS011;46541;49.894;10.886;2022-07-11T08:20:18;1.25;;;0.70;;
60700;SDS011;46541;49.894;10.886;2022-07-11T08:22:46;2.67;;;1.05;;
60700;SDS011;46541;49.894;10.886;2022-07-11T08:25:13;1.45;;;0.50;;
60700;SDS011;46541;49.894;10.886;2022-07-11T08:27:40;0.95;;;0.73;;
60700;SDS011;46541;49.894;10.886;2022-07-11T08:30:07;0.35;;;0.35;;
60700;SDS011;46541;49.894;10.886;2022-07-11T08:32:39;1.63;;;1.02;;
60700;SDS011;46541;49.894;10.886;2022-07-11T08:35:08;1.95;;;1.00;;
60700;SDS011;46541;49.894;10.886;2022-07-11T08:37:35;1.85;;;0.70;;
60700;SDS011;46541;49.894;10.886;2022-07-11T08:40:03;2.70;;;0.60;;
60700;SDS011;46541;49.894;10.886;2022-07-11T08:42:30;1.85;;;0.47;;
60700;SDS011;46541;49.894;10.886;2022-07-11T08:44:58;1.25;;;0.73;;
60700;SDS011;46541;49.894;10.886;2022-07-11T08:47:25;0.60;;;0.52;;
60700;SDS011;46541;49.894;10.886;2022-07-11T08:49:53;1.23;;;0.50;;
60700;SDS011;46541;49.894;10.886;2022-07-11T08:52:20;0.63;;;0.40;;
60700;SDS011;46541;49.894;10.886;2022-07-11T08:54:48;0.25;;;0.25;;
60700;SDS011;46541;49.894;10.886;2022-07-11T08:57:15;0.55;;;0.43;;
60700;SDS011;46541;49.894;10.886;2022-07-11T08:59:42;2.70;;;0.50;;
60700;SDS011;46541;49.894;10.886;2022-07-11T09:02:13;1.92;;;1.08;;
60700;SDS011;46541;49.894;10.886;2022-07-11T09:04:40;1.27;;;0.80;;
60700;SDS011;46541;49.894;10.886;2022-07-11T09:07:07;1.67;;;0.73;;
60700;SDS011;46541;49.894;10.886;2022-07-11T09:09:34;1.25;;;0.82;;
60700;SDS011;46541;49.894;10.886;2022-07-11T09:12:01;1.73;;;0.52;;
60700;SDS011;46541;49.894;10.886;2022-07-11T09:14:38;1.98;;;0.60;;
60700;SDS011;46541;49.894;10.886;2022-07-11T09:17:05;1.20;;;0.70;;
60700;SDS011;46541;49.894;10.886;2022-07-11T09:19:34;0.47;;;0.45;;
60700;SDS011;46541;49.894;10.886;2022-07-11T09:22:06;1.73;;;0.93;;
60700;SDS011;46541;49.894;10.886;2022-07-11T09:25:00;2.65;;;1.33;;
60700;SDS011;46541;49.894;10.886;2022-07-11T09:30:33;0.50;;;0.50;;
60700;SDS011;46541;49.894;10.886;2022-07-11T09:33:06;0.85;;;0.50;;
60700;SDS011;46541;49.894;10.886;2022-07-11T09:38:29;0.60;;;0.57;;
60700;SDS011;46541;49.894;10.886;2022-07-11T09:40:57;2.15;;;0.77;;
60700;SDS011;46541;49.894;10.886;2022-07-11T09:43:36;1.48;;;0.50;;
60700;SDS011;46541;49.894;10.886;2022-07-11T09:46:06;1.30;;;0.70;;
60700;SDS011;46541;49.894;10.886;2022-07-11T09:48:33;0.50;;;0.50;;
60700;SDS011;46541;49.894;10.886;2022-07-11T09:51:00;0.60;;;0.60;;
60700;SDS011;46541;49.894;10.886;2022-07-11T09:53:32;0.50;;;0.50;;
60700;SDS011;46541;49.894;10.886;2022-07-11T09:56:26;3.28;;;1.90;;
60700;SDS011;46541;49.894;10.886;2022-07-11T09:59:25;3.30;;;2.10;;
60700;SDS011;46541;49.894;10.886;2022-07-11T10:01:52;2.45;;;1.30;;
60700;SDS011;46541;49.894;10.886;2022-07-11T10:04:19;1.25;;;0.80;;
60700;SDS011;46541;49.894;10.886;2022-07-11T10:06:46;3.08;;;0.80;;
60700;SDS011;46541;49.894;10.886;2022-07-11T10:09:13;2.03;;;0.93;;
60700;SDS011;46541;49.894;10.886;2022-07-11T10:11:40;1.65;;;0.80;;
60700;SDS011;46541;49.894;10.886;2022-07-11T10:14:08;3.20;;;1.00;;
60700;SDS011;46541;49.894;10.886;2022-07-11T10:22:10;2.00;;;0.75;;
60700;SDS011;46541;49.894;10.886;2022-07-11T10:24:40;1.20;;;0.85;;
60700;SDS011;46541;49.894;10.886;2022-07-11T10:27:35;0.85;;;0.50;;
60700;SDS011;46541;49.894;10.886;2022-07-11T10:30:08;0.30;;;0.30;;
60700;SDS011;46541;49.894;10.886;2022-07-11T10:35:32;0.73;;;0.20;;
60700;SDS011;46541;49.894;10.886;2022-07-11T10:37:59;0.47;;;0.30;;
60700;SDS011;46541;49.894;10.886;2022-07-11T10:45:49;1.58;;;0.70;;
60700;SDS011;46541;49.894;10.886;2022-07-11T10:48:24;1.50;;;0.90;;
60700;SDS011;46541;49.894;10.886;2022-07-11T10:51:14;1.25;;;0.50;;
60700;SDS011;46541;49.894;10.886;2022-07-11T10:53:50;1.00;;;0.55;;
60700;SDS011;46541;49.894;10.886;2022-07-11T10:59:20;1.67;;;0.55;;
60700;SDS011;46541;49.894;10.886;2022-07-11T11:18:46;0.90;;;0.50;;
60700;SDS011;46541;49.894;10.886;2022-07-11T11:23:42;2.67;;;0.55;;
60700;SDS011;46541;49.894;10.886;2022-07-11T11:26:17;1.10;;;0.10;;
60700;SDS011;46541;49.894;10.886;2022-07-11T11:28:58;0.75;;;0.47;;
60700;SDS011;46541;49.894;10.886;2022-07-11T11:31:27;1.08;;;0.47;;
60700;SDS011;46541;49.894;10.886;2022-07-11T11:33:56;0.55;;;0.40;;
60700;SDS011;46541;49.894;10.886;2022-07-11T11:36:24;1.17;;;0.22;;
60700;SDS011;46541;49.894;10.886;2022-07-11T11:38:52;0.73;;;0.30;;
60700;SDS011;46541;49.894;10.886;2022-07-11T11:41:23;0.50;;;0.30;;
60700;SDS011;46541;49.894;10.886;2022-07-11T11:43:52;0.65;;;0.40;;
60700;SDS011;46541;49.894;10.886;2022-07-11T11:46:24;1.25;;;0.50;;
60700;SDS011;46541;49.894;10.886;2022-07-11T11:48:54;1.30;;;0.60;;
60700;SDS011;46541;49.894;10.886;2022-07-11T11:51:26;1.00;;;0.30;;
60700;SDS011;46541;49.894;10.886;2022-07-11T11:53:55;0.20;;;0.20;;
60700;SDS011;46541;49.894;10.886;2022-07-11T11:56:30;0.95;;;0.75;;
60700;SDS011;46541;49.894;10.886;2022-07-11T11:59:10;0.65;;;0.40;;
60700;SDS011;46541;49.894;10.886;2022-07-11T12:01:44;0.32;;;0.20;;
60700;SDS011;46541;49.894;10.886;2022-07-11T12:04:15;1.45;;;0.30;;
60700;SDS011;46541;49.894;10.886;2022-07-11T12:06:46;1.20;;;0.40;;
60700;SDS011;46541;49.894;10.886;2022-07-11T12:09:17;1.73;;;1.20;;
60700;SDS011;46541;49.894;10.886;2022-07-11T12:11:48;0.40;;;0.40;;
60700;SDS011;46541;49.894;10.886;2022-07-11T12:14:38;0.43;;;0.40;;
60700;SDS011;46541;49.894;10.886;2022-07-11T12:17:06;0.85;;;0.30;;
60700;SDS011;46541;49.894;10.886;2022-07-11T12:19:34;0.57;;;0.38;;
60700;SDS011;46541;49.894;10.886;2022-07-11T12:22:03;0.50;;;0.40;;
60700;SDS011;46541;49.894;10.886;2022-07-11T12:24:31;0.20;;;0.20;;
60700;SDS011;46541;49.894;10.886;2022-07-11T12:26:59;0.55;;;0.40;;
60700;SDS011;46541;49.894;10.886;2022-07-11T12:29:26;0.75;;;0.43;;
60700;SDS011;46541;49.894;10.886;2022-07-11T12:32:01;1.50;;;0.75;;
60700;SDS011;46541;49.894;10.886;2022-07-11T12:37:22;0.52;;;0.40;;
60700;SDS011;46541;49.894;10.886;2022-07-11T12:39:50;0.47;;;0.22;;
60700;SDS011;46541;49.894;10.886;2022-07-11T12:42:28;0.57;;;0.50;;
60700;SDS011;46541;49.894;10.886;2022-07-11T12:47:27;1.83;;;0.68;;
60700;SDS011;46541;49.894;10.886;2022-07-11T12:49:56;0.90;;;0.43;;
60700;SDS011;46541;49.894;10.886;2022-07-11T12:52:23;0.32;;;0.22;;
60700;SDS011;46541;49.894;10.886;2022-07-11T12:55:06;0.95;;;0.40;;
60700;SDS011;46541;49.894;10.886;2022-07-11T12:57:38;0.35;;;0.30;;
60700;SDS011;46541;49.894;10.886;2022-07-11T13:00:14;0.20;;;0.20;;
60700;SDS011;46541;49.894;10.886;2022-07-11T13:02:49;0.57;;;0.30;;
60700;SDS011;46541;49.894;10.886;2022-07-11T13:05:16;0.20;;;0.20;;
60700;SDS011;46541;49.894;10.886;2022-07-11T13:07:43;0.35;;;0.20;;
60700;SDS011;46541;49.894;10.886;2022-07-11T13:10:29;1.90;;;0.30;;
60700;SDS011;46541;49.894;10.886;2022-07-11T13:13:28;0.20;;;0.20;;
60700;SDS011;46541;49.894;10.886;2022-07-11T13:15:55;0.35;;;0.20;;
60700;SDS011;46541;49.894;10.886;2022-07-11T13:18:22;0.17;;;0.17;;
60700;SDS011;46541;49.894;10.886;2022-07-11T13:20:49;0.20;;;0.20;;
60700;SDS011;46541;49.894;10.886;2022-07-11T13:23:16;0.65;;;0.35;;
60700;SDS011;46541;49.894;10.886;2022-07-11T13:25:43;0.50;;;0.40;;
60700;SDS011;46541;49.894;10.886;2022-07-11T13:28:10;0.30;;;0.30;;
60700;SDS011;46541;49.894;10.886;2022-07-11T13:30:37;0.65;;;0.60;;
60700;SDS011;46541;49.894;10.886;2022-07-11T13:40:39;2.63;;;0.90;;
60700;SDS011;46541;49.894;10.886;2022-07-11T13:43:06;1.35;;;0.57;;
60700;SDS011;46541;49.894;10.886;2022-07-11T13:45:33;0.65;;;0.60;;
60700;SDS011;46541;49.894;10.886;2022-07-11T13:48:01;0.90;;;0.50;;
60700;SDS011;46541;49.894;10.886;2022-07-11T13:50:28;1.23;;;0.68;;
60700;SDS011;46541;49.894;10.886;2022-07-11T13:52:55;0.93;;;0.47;;
60700;SDS011;46541;49.894;10.886;2022-07-11T13:55:22;0.40;;;0.40;;
60700;SDS011;46541;49.894;10.886;2022-07-11T13:57:50;0.52;;;0.20;;
60700;SDS011;46541;49.894;10.886;2022-07-11T14:00:19;1.50;;;0.50;;
60700;SDS011;46541;49.894;10.886;2022-07-11T14:02:46;0.35;;;0.25;;
60700;SDS011;46541;49.894;10.886;2022-07-11T14:05:14;0.30;;;0.20;;
60700;SDS011;46541;49.894;10.886;2022-07-11T14:07:41;0.63;;;0.50;;
60700;SDS011;46541;49.894;10.886;2022-07-11T14:10:08;0.93;;;0.30;;
60700;SDS011;46541;49.894;10.886;2022-07-11T14:12:35;0.43;;;0.20;;
60700;SDS011;46541;49.894;10.886;2022-07-11T14:15:02;0.80;;;0.40;;
60700;SDS011;46541;49.894;10.886;2022-07-11T14:17:30;1.02;;;0.40;;
60700;SDS011;46541;49.894;10.886;2022-07-11T14:19:57;0.80;;;0.30;;
60700;SDS011;46541;49.894;10.886;2022-07-11T14:22:23;0.57;;;0.40;;
60700;SDS011;46541;49.894;10.886;2022-07-11T14:24:50;0.52;;;0.40;;
60700;SDS011;46541;49.894;10.886;2022-07-11T14:27:17;0.40;;;0.40;;
60700;SDS011;46541;49.894;10.886;2022-07-11T14:29:44;0.30;;;0.30;;
60700;SDS011;46541;49.894;10.886;2022-07-11T14:32:12;0.80;;;0.40;;
60700;SDS011;46541;49.894;10.886;2022-07-11T14:34:40;1.63;;;0.47;;
60700;SDS011;46541;49.894;10.886;2022-07-11T14:37:12;0.40;;;0.40;;
60700;SDS011;46541;49.894;10.886;2022-07-11T14:39:38;0.55;;;0.40;;
60700;SDS011;46541;49.894;10.886;2022-07-11T14:42:05;0.60;;;0.30;;
60700;SDS011;46541;49.894;10.886;2022-07-11T14:44:52;0.10;;;0.10;;
60700;SDS011;46541;49.894;10.886;2022-07-11T14:47:19;0.20;;;0.20;;
60700;SDS011;46541;49.894;10.886;2022-07-11T14:49:45;0.45;;;0.30;;
60700;SDS011;46541;49.894;10.886;2022-07-11T14:52:12;0.70;;;0.60;;
60700;SDS011;46541;49.894;10.886;2022-07-11T14:54:41;1.02;;;0.28;;
60700;SDS011;46541;49.894;10.886;2022-07-11T14:57:07;0.20;;;0.20;;
60700;SDS011;46541;49.894;10.886;2022-07-11T14:59:35;2.08;;;0.30;;
60700;SDS011;46541;49.894;10.886;2022-07-11T15:02:02;0.43;;;0.30;;
60700;SDS011;46541;49.894;10.886;2022-07-11T15:04:29;0.20;;;0.20;;
60700;SDS011;46541;49.894;10.886;2022-07-11T15:06:56;0.80;;;0.40;;
60700;SDS011;46541;49.894;10.886;2022-07-11T15:09:41;1.85;;;0.40;;
60700;SDS011;46541;49.894;10.886;2022-07-11T15:12:26;0.33;;;0.30;;
60700;SDS011;46541;49.894;10.886;2022-07-11T15:14:54;0.43;;;0.20;;
60700;SDS011;46541;49.894;10.886;2022-07-11T15:17:21;0.95;;;0.35;;
60700;SDS011;46541;49.894;10.886;2022-07-11T15:19:50;0.80;;;0.32;;
60700;SDS011;46541;49.894;10.886;2022-07-11T15:22:17;0.57;;;0.30;;
60700;SDS011;46541;49.894;10.886;2022-07-11T15:24:45;0.32;;;0.32;;
60700;SDS011;46541;49.894;10.886;2022-07-11T15:27:12;0.30;;;0.30;;
60700;SDS011;46541;49.894;10.886;2022-07-11T15:29:40;0.55;;;0.40;;
60700;SDS011;46541;49.894;10.886;2022-07-11T15:32:07;0.45;;;0.45;;
60700;SDS011;46541;49.894;10.886;2022-07-11T15:34:34;1.00;;;0.73;;
60700;SDS011;46541;49.894;10.886;2022-07-11T15:37:01;1.77;;;0.35;;
60700;SDS011;46541;49.894;10.886;2022-07-11T15:39:28;2.80;;;0.40;;